Terminal Aerodrome Forecast
Issued by NWS Blacksburg, VA

Home | Current Version | Previous Version | Text Only | Print | Product List | Glossary On
Versions: 1 2 3 4 5 6 7 8 9 10 11 12 13 14 15 16 17 18
000
FTUS41 KRNK 221140
TAFLYH
TAF
KLYH 221140Z 2212/2312 00000KT 3SM BR OVC002
      TEMPO 2212/2214 3/4SM BR
     FM221400 05006KT 5SM -DZ BR OVC003
     FM221600 07005KT 2SM -RA BR OVC005
     FM222000 08008KT 5SM BR OVC008
     FM230100 06010KT 3SM -RA BR BKN004 OVC012
     FM230400 06012G20KT 1SM RA BR OVC004
     FM231000 10008KT 3SM -RA BR OVC003=

USA.gov is the U.S. government's official web portal to all federal, state and local government web resources and services.